sensor_id;sensor_type;location;lat;lon;timestamp;pressure;altitude;pressure_sealevel;temperature;humidity
30744;BME280;17486;46.738;7.622;2022-09-20T00:01:05;95608.13;;;14.50;43.47
30744;BME280;17486;46.738;7.622;2022-09-20T00:03:32;95613.56;;;14.47;43.49
30744;BME280;17486;46.738;7.622;2022-09-20T00:06:00;95616.16;;;14.47;43.63
30744;BME280;17486;46.738;7.622;2022-09-20T00:08:26;95619.97;;;14.41;43.70
30744;BME280;17486;46.738;7.622;2022-09-20T00:10:57;95609.03;;;14.34;43.91
30744;BME280;17486;46.738;7.622;2022-09-20T00:13:26;95599.19;;;14.23;43.96
30744;BME280;17486;46.738;7.622;2022-09-20T00:15:51;95617.84;;;14.33;44.04
30744;BME280;17486;46.738;7.622;2022-09-20T00:18:16;95621.38;;;14.32;43.89
30744;BME280;17486;46.738;7.622;2022-09-20T00:20:46;95619.78;;;14.30;44.01
30744;BME280;17486;46.738;7.622;2022-09-20T00:23:12;95594.75;;;14.09;44.16
30744;BME280;17486;46.738;7.622;2022-09-20T00:25:38;95632.38;;;14.23;44.11
30744;BME280;17486;46.738;7.622;2022-09-20T00:28:04;95621.25;;;14.19;44.71
30744;BME280;17486;46.738;7.622;2022-09-20T00:30:31;95626.81;;;14.13;44.86
30744;BME280;17486;46.738;7.622;2022-09-20T00:32:56;95605.94;;;13.97;44.91
30744;BME280;17486;46.738;7.622;2022-09-20T00:35:22;95623.72;;;14.06;44.97
30744;BME280;17486;46.738;7.622;2022-09-20T00:37:47;95630.06;;;14.02;45.34
30744;BME280;17486;46.738;7.622;2022-09-20T00:40:16;95633.78;;;13.98;45.66
30744;BME280;17486;46.738;7.622;2022-09-20T00:42:41;95621.13;;;13.90;45.72
30744;BME280;17486;46.738;7.622;2022-09-20T00:47:42;95623.69;;;13.76;46.05
30744;BME280;17486;46.738;7.622;2022-09-20T00:52:49;95603.03;;;13.71;46.34
30744;BME280;17486;46.738;7.622;2022-09-20T00:55:16;95599.81;;;13.66;46.34
30744;BME280;17486;46.738;7.622;2022-09-20T00:57:45;95600.78;;;13.65;46.22
30744;BME280;17486;46.738;7.622;2022-09-20T01:00:11;95609.69;;;13.61;46.07
30744;BME280;17486;46.738;7.622;2022-09-20T01:02:42;95597.22;;;13.50;46.58
30744;BME280;17486;46.738;7.622;2022-09-20T01:05:11;95605.41;;;13.44;46.88
30744;BME280;17486;46.738;7.622;2022-09-20T01:07:39;95568.50;;;13.18;47.29
30744;BME280;17486;46.738;7.622;2022-09-20T01:10:06;95594.84;;;13.14;47.77
30744;BME280;17486;46.738;7.622;2022-09-20T01:12:32;95576.22;;;12.88;47.68
30744;BME280;17486;46.738;7.622;2022-09-20T01:15:02;95604.16;;;12.86;48.32
30744;BME280;17486;46.738;7.622;2022-09-20T01:17:31;95582.34;;;12.71;48.52
30744;BME280;17486;46.738;7.622;2022-09-20T01:20:19;95599.81;;;12.69;48.65
30744;BME280;17486;46.738;7.622;2022-09-20T01:28:08;95582.03;;;12.59;48.80
30744;BME280;17486;46.738;7.622;2022-09-20T01:30:47;95609.25;;;12.71;49.00
30744;BME280;17486;46.738;7.622;2022-09-20T01:33:32;95596.91;;;12.75;48.38
30744;BME280;17486;46.738;7.622;2022-09-20T01:36:04;95598.16;;;12.84;48.79
30744;BME280;17486;46.738;7.622;2022-09-20T01:44:12;95592.03;;;12.85;48.76
30744;BME280;17486;46.738;7.622;2022-09-20T01:46:42;95591.19;;;12.84;48.99
30744;BME280;17486;46.738;7.622;2022-09-20T01:52:16;95597.94;;;12.88;48.85
30744;BME280;17486;46.738;7.622;2022-09-20T02:09:56;95603.88;;;12.74;49.12
30744;BME280;17486;46.738;7.622;2022-09-20T02:12:52;95604.03;;;12.71;49.26
30744;BME280;17486;46.738;7.622;2022-09-20T02:18:33;95600.94;;;12.47;49.69
30744;BME280;17486;46.738;7.622;2022-09-20T02:21:48;95599.88;;;12.34;49.86
30744;BME280;17486;46.738;7.622;2022-09-20T02:27:06;95564.56;;;12.10;50.37
30744;BME280;17486;46.738;7.622;2022-09-20T02:30:03;95589.91;;;12.24;50.52
30744;BME280;17486;46.738;7.622;2022-09-20T02:41:13;95602.88;;;12.26;50.57
30744;BME280;17486;46.738;7.622;2022-09-20T02:43:52;95571.59;;;12.08;50.52
30744;BME280;17486;46.738;7.622;2022-09-20T02:49:05;95593.69;;;12.19;51.00
30744;BME280;17486;46.738;7.622;2022-09-20T02:51:45;95570.97;;;12.03;50.90
30744;BME280;17486;46.738;7.622;2022-09-20T03:10:40;95611.91;;;12.01;51.62
30744;BME280;17486;46.738;7.622;2022-09-20T03:18:42;95582.88;;;11.72;51.76
30744;BME280;17486;46.738;7.622;2022-09-20T03:21:23;95594.25;;;11.71;51.02
30744;BME280;17486;46.738;7.622;2022-09-20T03:37:42;95621.28;;;11.69;52.03
30744;BME280;17486;46.738;7.622;2022-09-20T03:40:43;95623.19;;;11.65;51.78
30744;BME280;17486;46.738;7.622;2022-09-20T03:43:31;95628.41;;;11.65;51.66
30744;BME280;17486;46.738;7.622;2022-09-20T03:51:28;95625.25;;;11.58;52.15
30744;BME280;17486;46.738;7.622;2022-09-20T03:54:00;95630.59;;;11.55;52.63
30744;BME280;17486;46.738;7.622;2022-09-20T03:56:58;95621.22;;;11.51;52.14
30744;BME280;17486;46.738;7.622;2022-09-20T04:05:10;95585.69;;;11.14;52.52
30744;BME280;17486;46.738;7.622;2022-09-20T04:18:44;95595.69;;;10.64;53.92
30744;BME280;17486;46.738;7.622;2022-09-20T04:27:00;95632.09;;;10.85;54.21
30744;BME280;17486;46.738;7.622;2022-09-20T04:29:43;95630.97;;;10.90;53.65
30744;BME280;17486;46.738;7.622;2022-09-20T04:32:27;95639.41;;;10.95;54.62
30744;BME280;17486;46.738;7.622;2022-09-20T04:38:09;95634.69;;;11.04;54.34
30744;BME280;17486;46.738;7.622;2022-09-20T04:44:01;95639.81;;;11.05;54.36
30744;BME280;17486;46.738;7.622;2022-09-20T04:58:26;95651.38;;;11.00;54.17
30744;BME280;17486;46.738;7.622;2022-09-20T05:04:16;95650.91;;;10.90;54.58
30744;BME280;17486;46.738;7.622;2022-09-20T05:23:49;95657.25;;;10.84;54.28
30744;BME280;17486;46.738;7.622;2022-09-20T05:29:11;95672.13;;;10.81;54.29
30744;BME280;17486;46.738;7.622;2022-09-20T05:31:46;95635.53;;;10.65;53.75
30744;BME280;17486;46.738;7.622;2022-09-20T05:34:45;95658.44;;;10.77;54.30
30744;BME280;17486;46.738;7.622;2022-09-20T05:46:09;95674.09;;;10.75;54.67
30744;BME280;17486;46.738;7.622;2022-09-20T05:51:40;95681.06;;;10.75;54.43
30744;BME280;17486;46.738;7.622;2022-09-20T06:08:09;95666.28;;;10.75;54.79
30744;BME280;17486;46.738;7.622;2022-09-20T06:13:22;95690.97;;;10.87;54.80
30744;BME280;17486;46.738;7.622;2022-09-20T06:16:05;95657.66;;;10.75;55.02
30744;BME280;17486;46.738;7.622;2022-09-20T06:18:37;95693.41;;;10.90;54.58
30744;BME280;17486;46.738;7.622;2022-09-20T06:23:38;95688.63;;;11.00;55.36
30744;BME280;17486;46.738;7.622;2022-09-20T06:26:13;95708.38;;;11.06;54.44
30744;BME280;17486;46.738;7.622;2022-09-20T06:28:45;95695.13;;;11.10;54.73
30744;BME280;17486;46.738;7.622;2022-09-20T06:31:12;95699.09;;;11.19;54.47
30744;BME280;17486;46.738;7.622;2022-09-20T06:34:06;95691.91;;;11.24;54.77
30744;BME280;17486;46.738;7.622;2022-09-20T06:36:35;95699.47;;;11.31;54.40
30744;BME280;17486;46.738;7.622;2022-09-20T06:42:16;95691.28;;;11.38;54.42
30744;BME280;17486;46.738;7.622;2022-09-20T06:44:42;95700.94;;;11.36;54.26
30744;BME280;17486;46.738;7.622;2022-09-20T06:47:11;95693.88;;;11.38;54.32
30744;BME280;17486;46.738;7.622;2022-09-20T06:49:37;95704.16;;;11.41;53.89
30744;BME280;17486;46.738;7.622;2022-09-20T06:52:06;95703.47;;;11.38;54.12
30744;BME280;17486;46.738;7.622;2022-09-20T06:54:32;95678.81;;;11.26;55.06
30744;BME280;17486;46.738;7.622;2022-09-20T06:56:59;95666.88;;;11.22;54.81
30744;BME280;17486;46.738;7.622;2022-09-20T06:59:27;95652.97;;;11.21;54.28
30744;BME280;17486;46.738;7.622;2022-09-20T07:01:53;95692.50;;;11.50;54.31
30744;BME280;17486;46.738;7.622;2022-09-20T07:04:18;95697.91;;;11.45;54.11
30744;BME280;17486;46.738;7.622;2022-09-20T07:06:44;95692.53;;;11.49;54.58
30744;BME280;17486;46.738;7.622;2022-09-20T07:09:10;95672.91;;;11.41;54.62
30744;BME280;17486;46.738;7.622;2022-09-20T07:11:35;95665.81;;;11.45;55.05
30744;BME280;17486;46.738;7.622;2022-09-20T07:14:01;95701.28;;;11.67;54.13
30744;BME280;17486;46.738;7.622;2022-09-20T07:16:26;95700.38;;;11.68;54.53
30744;BME280;17486;46.738;7.622;2022-09-20T07:18:52;95694.72;;;11.77;54.38
30744;BME280;17486;46.738;7.622;2022-09-20T07:21:19;95699.41;;;11.88;54.60
30744;BME280;17486;46.738;7.622;2022-09-20T07:23:45;95679.34;;;11.90;54.35
30744;BME280;17486;46.738;7.622;2022-09-20T07:28:48;95689.34;;;11.99;53.88
30744;BME280;17486;46.738;7.622;2022-09-20T07:31:14;95700.34;;;12.06;54.17
30744;BME280;17486;46.738;7.622;2022-09-20T07:33:40;95688.63;;;12.15;53.85
30744;BME280;17486;46.738;7.622;2022-09-20T07:36:05;95700.84;;;12.32;54.17
30744;BME280;17486;46.738;7.622;2022-09-20T07:38:31;95705.53;;;12.42;54.00
30744;BME280;17486;46.738;7.622;2022-09-20T07:41:01;95701.44;;;12.54;53.61
30744;BME280;17486;46.738;7.622;2022-09-20T07:43:28;95701.06;;;12.62;53.46
30744;BME280;17486;46.738;7.622;2022-09-20T07:45:54;95704.13;;;12.70;52.44
30744;BME280;17486;46.738;7.622;2022-09-20T07:48:29;95705.03;;;12.69;52.76
30744;BME280;17486;46.738;7.622;2022-09-20T07:50:58;95713.66;;;12.71;53.14
30744;BME280;17486;46.738;7.622;2022-09-20T07:53:25;95699.22;;;12.82;52.95
30744;BME280;17486;46.738;7.622;2022-09-20T07:56:01;95702.03;;;12.94;53.24
30744;BME280;17486;46.738;7.622;2022-09-20T07:58:27;95682.91;;;12.94;53.08
30744;BME280;17486;46.738;7.622;2022-09-20T08:00:55;95698.06;;;13.21;52.34
30744;BME280;17486;46.738;7.622;2022-09-20T08:03:21;95701.88;;;13.31;52.11
30744;BME280;17486;46.738;7.622;2022-09-20T08:05:47;95708.91;;;13.47;51.82
30744;BME280;17486;46.738;7.622;2022-09-20T08:08:14;95701.63;;;13.53;51.85
30744;BME280;17486;46.738;7.622;2022-09-20T08:10:41;95680.09;;;13.48;51.81
30744;BME280;17486;46.738;7.622;2022-09-20T08:13:07;95707.34;;;13.76;52.01
30744;BME280;17486;46.738;7.622;2022-09-20T08:15:32;95706.59;;;13.90;51.90
30744;BME280;17486;46.738;7.622;2022-09-20T08:17:58;95678.56;;;13.92;51.96
30744;BME280;17486;46.738;7.622;2022-09-20T08:20:23;95702.06;;;14.24;51.84
30744;BME280;17486;46.738;7.622;2022-09-20T08:22:49;95703.56;;;14.44;51.33
30744;BME280;17486;46.738;7.622;2022-09-20T08:25:14;95706.88;;;14.62;50.96
30744;BME280;17486;46.738;7.622;2022-09-20T08:27:42;95679.72;;;14.65;50.43
30744;BME280;17486;46.738;7.622;2022-09-20T08:30:08;95706.78;;;14.94;49.98
30744;BME280;17486;46.738;7.622;2022-09-20T08:32:33;95699.50;;;14.99;49.07
30744;BME280;17486;46.738;7.622;2022-09-20T08:34:59;95706.03;;;15.06;49.11
30744;BME280;17486;46.738;7.622;2022-09-20T08:37:24;95703.34;;;15.08;49.49
30744;BME280;17486;46.738;7.622;2022-09-20T08:39:50;95695.66;;;15.19;49.39
30744;BME280;17486;46.738;7.622;2022-09-20T08:42:42;95698.38;;;15.32;49.32
30744;BME280;17486;46.738;7.622;2022-09-20T08:45:13;95701.75;;;15.49;49.18
30744;BME280;17486;46.738;7.622;2022-09-20T08:50:17;95702.19;;;15.70;48.21
30744;BME280;17486;46.738;7.622;2022-09-20T08:52:46;95702.41;;;15.81;47.85
30744;BME280;17486;46.738;7.622;2022-09-20T08:55:19;95701.59;;;15.94;47.70
30744;BME280;17486;46.738;7.622;2022-09-20T08:57:49;95683.91;;;15.97;48.06
30744;BME280;17486;46.738;7.622;2022-09-20T09:00:19;95700.44;;;16.12;46.77
30744;BME280;17486;46.738;7.622;2022-09-20T09:02:45;95697.06;;;16.10;45.68
30744;BME280;17486;46.738;7.622;2022-09-20T09:05:35;95701.03;;;16.03;45.79
30744;BME280;17486;46.738;7.622;2022-09-20T09:08:29;95690.97;;;16.10;46.50
30744;BME280;17486;46.738;7.622;2022-09-20T09:11:03;95672.72;;;16.08;45.94
30744;BME280;17486;46.738;7.622;2022-09-20T09:14:12;95692.53;;;16.39;46.22
30744;BME280;17486;46.738;7.622;2022-09-20T09:16:59;95684.38;;;16.57;46.00
30744;BME280;17486;46.738;7.622;2022-09-20T09:19:27;95690.53;;;16.70;45.94
30744;BME280;17486;46.738;7.622;2022-09-20T09:22:00;95687.16;;;16.81;45.14
30744;BME280;17486;46.738;7.622;2022-09-20T09:24:27;95689.63;;;16.97;44.82
30744;BME280;17486;46.738;7.622;2022-09-20T09:27:19;95679.34;;;17.07;44.84
30744;BME280;17486;46.738;7.622;2022-09-20T09:29:49;95676.50;;;17.23;44.59
30744;BME280;17486;46.738;7.622;2022-09-20T09:34:49;95677.47;;;17.59;44.26
30744;BME280;17486;46.738;7.622;2022-09-20T09:37:41;95675.97;;;17.81;43.50
30744;BME280;17486;46.738;7.622;2022-09-20T09:40:18;95673.47;;;18.03;42.19
30744;BME280;17486;46.738;7.622;2022-09-20T09:42:54;95664.22;;;18.22;41.94
30744;BME280;17486;46.738;7.622;2022-09-20T09:45:31;95678.00;;;18.50;41.94
30744;BME280;17486;46.738;7.622;2022-09-20T09:48:00;95662.50;;;18.69;41.05
30744;BME280;17486;46.738;7.622;2022-09-20T09:50:32;95663.75;;;18.88;39.75
30744;BME280;17486;46.738;7.622;2022-09-20T09:53:09;95649.47;;;18.79;39.63
30744;BME280;17486;46.738;7.622;2022-09-20T09:55:45;95654.13;;;18.76;39.57
30744;BME280;17486;46.738;7.622;2022-09-20T10:00:49;95629.66;;;18.62;39.04
30744;BME280;17486;46.738;7.622;2022-09-20T10:03:31;95632.19;;;18.64;39.57
30744;BME280;17486;46.738;7.622;2022-09-20T10:06:22;95643.09;;;18.70;38.76
30744;BME280;17486;46.738;7.622;2022-09-20T10:20:39;95642.25;;;19.17;39.47
30744;BME280;17486;46.738;7.622;2022-09-20T10:23:24;95635.78;;;19.32;39.16
30744;BME280;17486;46.738;7.622;2022-09-20T10:26:00;95636.97;;;19.51;39.23
30744;BME280;17486;46.738;7.622;2022-09-20T10:37:34;95624.31;;;19.88;37.45
30744;BME280;17486;46.738;7.622;2022-09-20T10:42:46;95624.16;;;20.01;37.46
30744;BME280;17486;46.738;7.622;2022-09-20T10:48:41;95604.38;;;20.28;37.07
30744;BME280;17486;46.738;7.622;2022-09-20T10:54:17;95613.63;;;20.76;36.64
30744;BME280;17486;46.738;7.622;2022-09-20T10:56:46;95604.66;;;20.89;36.06
30744;BME280;17486;46.738;7.622;2022-09-20T11:10:15;95609.31;;;20.96;35.98
30744;BME280;17486;46.738;7.622;2022-09-20T11:12:50;95598.13;;;20.93;36.68
30744;BME280;17486;46.738;7.622;2022-09-20T11:15:33;95602.19;;;20.97;36.96
30744;BME280;17486;46.738;7.622;2022-09-20T11:18:25;95606.31;;;21.11;37.23
30744;BME280;17486;46.738;7.622;2022-09-20T11:21:26;95607.88;;;21.23;36.91
30744;BME280;17486;46.738;7.622;2022-09-20T11:24:00;95583.94;;;21.25;36.49
30744;BME280;17486;46.738;7.622;2022-09-20T11:26:39;95584.13;;;21.33;35.90
30744;BME280;17486;46.738;7.622;2022-09-20T11:29:25;95600.88;;;21.53;35.28
30744;BME280;17486;46.738;7.622;2022-09-20T11:32:05;95598.69;;;21.58;35.37
30744;BME280;17486;46.738;7.622;2022-09-20T11:34:38;95590.22;;;21.64;35.60
30744;BME280;17486;46.738;7.622;2022-09-20T11:37:04;95589.25;;;21.75;35.55
30744;BME280;17486;46.738;7.622;2022-09-20T11:39:54;95591.63;;;21.78;35.05
30744;BME280;17486;46.738;7.622;2022-09-20T11:42:24;95593.19;;;21.91;37.82
30744;BME280;17486;46.738;7.622;2022-09-20T11:44:53;95550.97;;;21.89;37.69
30744;BME280;17486;46.738;7.622;2022-09-20T11:47:32;95586.22;;;22.19;36.76
30744;BME280;17486;46.738;7.622;2022-09-20T11:50:31;95585.13;;;22.31;35.47
30744;BME280;17486;46.738;7.622;2022-09-20T11:55:46;95575.31;;;22.81;35.86
30744;BME280;17486;46.738;7.622;2022-09-20T11:58:16;95582.50;;;22.98;34.80
30744;BME280;17486;46.738;7.622;2022-09-20T12:00:47;95572.84;;;23.17;32.44
30744;BME280;17486;46.738;7.622;2022-09-20T12:03:33;95585.22;;;23.26;32.03
30744;BME280;17486;46.738;7.622;2022-09-20T12:06:06;95575.00;;;23.31;32.45
30744;BME280;17486;46.738;7.622;2022-09-20T12:08:35;95562.88;;;23.29;31.86
30744;BME280;17486;46.738;7.622;2022-09-20T12:11:08;95574.50;;;23.18;31.29
30744;BME280;17486;46.738;7.622;2022-09-20T12:13:37;95557.81;;;22.88;30.88
30744;BME280;17486;46.738;7.622;2022-09-20T12:16:12;95581.13;;;22.94;31.29
30744;BME280;17486;46.738;7.622;2022-09-20T12:21:18;95571.59;;;23.01;31.50
30744;BME280;17486;46.738;7.622;2022-09-20T12:28:58;95567.94;;;23.12;31.30
30744;BME280;17486;46.738;7.622;2022-09-20T12:36:31;95564.28;;;23.23;31.04
30744;BME280;17486;46.738;7.622;2022-09-20T12:39:03;95548.47;;;23.31;30.93
30744;BME280;17486;46.738;7.622;2022-09-20T12:42:00;95548.47;;;23.31;30.81
30744;BME280;17486;46.738;7.622;2022-09-20T12:47:36;95553.00;;;23.49;30.61
30744;BME280;17486;46.738;7.622;2022-09-20T12:50:14;95558.16;;;23.68;29.88
30744;BME280;17486;46.738;7.622;2022-09-20T12:53:01;95550.06;;;23.88;29.96
30744;BME280;17486;46.738;7.622;2022-09-20T12:55:42;95546.16;;;24.10;29.91
30744;BME280;17486;46.738;7.622;2022-09-20T13:03:27;95540.53;;;24.76;28.70
30744;BME280;17486;46.738;7.622;2022-09-20T13:08:45;95529.50;;;24.97;28.13
30744;BME280;17486;46.738;7.622;2022-09-20T13:11:17;95511.44;;;24.82;27.83
30744;BME280;17486;46.738;7.622;2022-09-20T13:13:48;95535.31;;;24.92;27.86
30744;BME280;17486;46.738;7.622;2022-09-20T13:16:21;95510.09;;;24.78;27.94
30744;BME280;17486;46.738;7.622;2022-09-20T13:18:57;95521.97;;;24.84;28.09
30744;BME280;17486;46.738;7.622;2022-09-20T13:21:25;95524.09;;;24.80;27.62
30744;BME280;17486;46.738;7.622;2022-09-20T13:23:52;95511.22;;;24.67;27.95
30744;BME280;17486;46.738;7.622;2022-09-20T13:26:39;95529.50;;;24.71;27.99
30744;BME280;17486;46.738;7.622;2022-09-20T13:29:21;95514.38;;;24.63;28.02
30744;BME280;17486;46.738;7.622;2022-09-20T13:31:47;95528.22;;;24.75;27.32
30744;BME280;17486;46.738;7.622;2022-09-20T13:34:23;95513.19;;;24.65;27.55
30744;BME280;17486;46.738;7.622;2022-09-20T13:36:52;95515.19;;;24.63;27.33
30744;BME280;17486;46.738;7.622;2022-09-20T13:39:36;95509.88;;;24.63;27.92
30744;BME280;17486;46.738;7.622;2022-09-20T13:42:08;95508.72;;;24.66;27.63
30744;BME280;17486;46.738;7.622;2022-09-20T13:44:37;95541.56;;;24.83;27.26
30744;BME280;17486;46.738;7.622;2022-09-20T13:47:26;95526.66;;;24.64;27.00
30744;BME280;17486;46.738;7.622;2022-09-20T13:49:58;95518.81;;;24.62;27.73
30744;BME280;17486;46.738;7.622;2022-09-20T13:52:25;95505.94;;;24.76;27.35
30744;BME280;17486;46.738;7.622;2022-09-20T13:54:51;95517.56;;;25.01;27.02
30744;BME280;17486;46.738;7.622;2022-09-20T13:57:27;95522.41;;;25.14;26.58
30744;BME280;17486;46.738;7.622;2022-09-20T13:59:54;95505.97;;;25.19;26.97
30744;BME280;17486;46.738;7.622;2022-09-20T14:02:32;95509.91;;;25.41;26.68
30744;BME280;17486;46.738;7.622;2022-09-20T14:05:01;95501.31;;;25.55;26.00
30744;BME280;17486;46.738;7.622;2022-09-20T14:07:28;95508.59;;;25.53;25.86
30744;BME280;17486;46.738;7.622;2022-09-20T14:09:55;95509.13;;;25.57;25.59
30744;BME280;17486;46.738;7.622;2022-09-20T14:12:23;95506.97;;;25.60;25.45
30744;BME280;17486;46.738;7.622;2022-09-20T14:14:50;95511.66;;;25.67;26.39
30744;BME280;17486;46.738;7.622;2022-09-20T14:17:17;95522.66;;;25.80;26.29
30744;BME280;17486;46.738;7.622;2022-09-20T14:19:47;95513.34;;;25.76;26.28
30744;BME280;17486;46.738;7.622;2022-09-20T14:22:24;95527.34;;;25.86;25.44
30744;BME280;17486;46.738;7.622;2022-09-20T14:25:02;95527.69;;;25.91;25.90
30744;BME280;17486;46.738;7.622;2022-09-20T14:27:28;95506.69;;;25.88;25.63
30744;BME280;17486;46.738;7.622;2022-09-20T14:29:55;95524.22;;;26.07;25.48
30744;BME280;17486;46.738;7.622;2022-09-20T14:32:25;95527.00;;;25.89;24.59
30744;BME280;17486;46.738;7.622;2022-09-20T14:37:48;95539.84;;;25.35;25.16
30744;BME280;17486;46.738;7.622;2022-09-20T14:40:41;95543.50;;;24.99;26.05
30744;BME280;17486;46.738;7.622;2022-09-20T14:43:30;95535.00;;;24.69;26.05
30744;BME280;17486;46.738;7.622;2022-09-20T14:46:14;95510.00;;;24.17;25.81
30744;BME280;17486;46.738;7.622;2022-09-20T14:48:40;95530.75;;;23.96;26.17
30744;BME280;17486;46.738;7.622;2022-09-20T14:53:46;95531.06;;;23.47;26.76
30744;BME280;17486;46.738;7.622;2022-09-20T14:56:13;95511.75;;;23.27;27.07
30744;BME280;17486;46.738;7.622;2022-09-20T15:01:57;95543.94;;;23.14;27.56
30744;BME280;17486;46.738;7.622;2022-09-20T15:04:25;95538.69;;;22.94;28.08
30744;BME280;17486;46.738;7.622;2022-09-20T15:06:53;95516.88;;;22.63;28.36
30744;BME280;17486;46.738;7.622;2022-09-20T15:09:20;95535.44;;;22.53;28.60
30744;BME280;17486;46.738;7.622;2022-09-20T15:11:46;95552.22;;;22.44;28.57
30744;BME280;17486;46.738;7.622;2022-09-20T15:14:14;95516.81;;;22.15;28.75
30744;BME280;17486;46.738;7.622;2022-09-20T15:16:39;95544.41;;;22.13;29.25
30744;BME280;17486;46.738;7.622;2022-09-20T15:19:04;95544.13;;;21.96;29.26
30744;BME280;17486;46.738;7.622;2022-09-20T15:21:32;95553.44;;;21.81;29.68
30744;BME280;17486;46.738;7.622;2022-09-20T15:23:57;95544.13;;;21.67;29.64
30744;BME280;17486;46.738;7.622;2022-09-20T15:26:22;95544.03;;;21.47;29.84
30744;BME280;17486;46.738;7.622;2022-09-20T15:28:48;95551.25;;;21.35;29.87
30744;BME280;17486;46.738;7.622;2022-09-20T15:31:14;95524.31;;;21.11;30.17
30744;BME280;17486;46.738;7.622;2022-09-20T15:33:41;95558.69;;;21.11;30.43
30744;BME280;17486;46.738;7.622;2022-09-20T15:36:07;95554.22;;;21.01;30.75
30744;BME280;17486;46.738;7.622;2022-09-20T15:38:33;95530.56;;;20.79;30.84
30744;BME280;17486;46.738;7.622;2022-09-20T15:41:00;95555.53;;;20.86;31.13
30744;BME280;17486;46.738;7.622;2022-09-20T15:43:27;95563.00;;;20.81;31.02
30744;BME280;17486;46.738;7.622;2022-09-20T15:45:57;95535.72;;;20.59;31.36
30744;BME280;17486;46.738;7.622;2022-09-20T15:48:26;95531.94;;;20.52;31.37
30744;BME280;17486;46.738;7.622;2022-09-20T15:51:04;95558.69;;;20.59;31.21
30744;BME280;17486;46.738;7.622;2022-09-20T15:53:33;95556.69;;;20.51;31.53
30744;BME280;17486;46.738;7.622;2022-09-20T15:56:06;95558.06;;;20.45;31.71
30744;BME280;17486;46.738;7.622;2022-09-20T15:58:37;95559.59;;;20.48;31.60
30744;BME280;17486;46.738;7.622;2022-09-20T16:01:07;95563.72;;;20.41;31.78
30744;BME280;17486;46.738;7.622;2022-09-20T16:03:34;95552.91;;;20.44;31.67
30744;BME280;17486;46.738;7.622;2022-09-20T16:06:05;95552.00;;;20.33;31.63
30744;BME280;17486;46.738;7.622;2022-09-20T16:08:34;95559.16;;;20.43;31.58
30744;BME280;17486;46.738;7.622;2022-09-20T16:11:00;95538.22;;;20.30;31.60
30744;BME280;17486;46.738;7.622;2022-09-20T16:13:26;95572.59;;;20.40;31.58
30744;BME280;17486;46.738;7.622;2022-09-20T16:15:53;95535.25;;;20.23;31.81
30744;BME280;17486;46.738;7.622;2022-09-20T16:18:19;95570.50;;;20.33;32.01
30744;BME280;17486;46.738;7.622;2022-09-20T16:21:10;95568.63;;;20.24;32.13
30744;BME280;17486;46.738;7.622;2022-09-20T16:23:40;95581.47;;;20.17;32.22
30744;BME280;17486;46.738;7.622;2022-09-20T16:26:08;95549.91;;;19.95;32.33
30744;BME280;17486;46.738;7.622;2022-09-20T16:28:43;95569.09;;;19.97;32.34
30744;BME280;17486;46.738;7.622;2022-09-20T16:31:29;95579.31;;;19.90;32.52
30744;BME280;17486;46.738;7.622;2022-09-20T16:33:55;95554.38;;;19.71;32.22
30744;BME280;17486;46.738;7.622;2022-09-20T16:36:21;95575.25;;;19.75;32.48
30744;BME280;17486;46.738;7.622;2022-09-20T16:38:49;95576.22;;;19.74;32.73
30744;BME280;17486;46.738;7.622;2022-09-20T16:41:15;95584.50;;;19.69;32.48
30744;BME280;17486;46.738;7.622;2022-09-20T16:43:40;95566.69;;;19.50;32.42
30744;BME280;17486;46.738;7.622;2022-09-20T16:46:06;95589.69;;;19.59;32.40
30744;BME280;17486;46.738;7.622;2022-09-20T16:48:31;95572.44;;;19.44;32.14
30744;BME280;17486;46.738;7.622;2022-09-20T16:50:57;95568.03;;;19.44;32.17
30744;BME280;17486;46.738;7.622;2022-09-20T16:53:26;95602.88;;;19.59;32.20
30744;BME280;17486;46.738;7.622;2022-09-20T16:55:52;95596.78;;;19.59;32.21
30744;BME280;17486;46.738;7.622;2022-09-20T16:58:28;95579.53;;;19.43;32.02
30744;BME280;17486;46.738;7.622;2022-09-20T17:01:02;95574.03;;;19.35;31.97
30744;BME280;17486;46.738;7.622;2022-09-20T17:03:28;95596.91;;;19.46;32.13
30744;BME280;17486;46.738;7.622;2022-09-20T17:06:00;95588.31;;;19.32;32.04
30744;BME280;17486;46.738;7.622;2022-09-20T17:08:26;95608.75;;;19.40;31.99
30744;BME280;17486;46.738;7.622;2022-09-20T17:10:51;95593.31;;;19.24;31.80
30744;BME280;17486;46.738;7.622;2022-09-20T17:13:19;95614.19;;;19.27;31.96
30744;BME280;17486;46.738;7.622;2022-09-20T17:15:45;95617.78;;;19.26;32.19
30744;BME280;17486;46.738;7.622;2022-09-20T17:18:12;95589.03;;;19.12;32.48
30744;BME280;17486;46.738;7.622;2022-09-20T17:20:38;95603.16;;;19.11;32.60
30744;BME280;17486;46.738;7.622;2022-09-20T17:23:04;95624.34;;;19.20;32.50
30744;BME280;17486;46.738;7.622;2022-09-20T17:25:33;95616.22;;;19.12;32.94
30744;BME280;17486;46.738;7.622;2022-09-20T17:27:58;95621.38;;;19.14;33.28
30744;BME280;17486;46.738;7.622;2022-09-20T17:30:24;95621.88;;;19.08;33.32
30744;BME280;17486;46.738;7.622;2022-09-20T17:32:50;95585.88;;;18.84;33.40
30744;BME280;17486;46.738;7.622;2022-09-20T17:35:16;95601.31;;;18.88;33.23
30744;BME280;17486;46.738;7.622;2022-09-20T17:37:42;95613.06;;;18.84;32.92
30744;BME280;17486;46.738;7.622;2022-09-20T17:40:08;95631.91;;;18.91;33.47
30744;BME280;17486;46.738;7.622;2022-09-20T17:42:34;95631.63;;;18.83;33.47
30744;BME280;17486;46.738;7.622;2022-09-20T17:44:59;95640.59;;;18.80;33.73
30744;BME280;17486;46.738;7.622;2022-09-20T17:47:25;95652.44;;;18.75;34.20
30744;BME280;17486;46.738;7.622;2022-09-20T17:49:51;95622.59;;;18.51;34.17
30744;BME280;17486;46.738;7.622;2022-09-20T17:52:16;95646.91;;;18.55;34.45
30744;BME280;17486;46.738;7.622;2022-09-20T17:54:42;95629.59;;;18.39;34.66
30744;BME280;17486;46.738;7.622;2022-09-20T17:57:09;95660.97;;;18.43;34.88
30744;BME280;17486;46.738;7.622;2022-09-20T17:59:34;95672.81;;;18.37;35.14
30744;BME280;17486;46.738;7.622;2022-09-20T18:02:00;95648.66;;;18.19;35.18